Time;durP1;ratioP1;P1;durP2;ratioP2;P2;SDS_P1;SDS_P2;PMS_P1;PMS_P2;Temp;Humidity;BMP_temperature;BMP_pressure;BME280_temperature;BME280_humidity;BME280_pressure;Samples;Min_cycle;Max_cycle;Signal;HPM_P1;HPM_P2
2022/08/01 00:00:41;;;;;;;2.17;1.05;;;25.60;56.00;;;;;;5031787;28;88784;-82
2022/08/01 00:03:07;;;;;;;1.70;1.10;;;25.60;56.10;;;;;;5030921;28;86905;-82
2022/08/01 00:05:33;;;;;;;1.60;0.98;;;25.60;56.10;;;;;;5032235;28;86959;-83
2022/08/01 00:07:59;;;;;;;1.10;0.95;;;25.60;56.10;;;;;;5031797;28;89658;-83
2022/08/01 00:10:24;;;;;;;1.20;1.10;;;25.60;56.20;;;;;;5032223;28;87381;-83
2022/08/01 00:12:50;;;;;;;1.08;0.90;;;25.60;56.20;;;;;;5031974;28;86894;-83
2022/08/01 00:15:17;;;;;;;1.50;1.00;;;25.60;56.30;;;;;;5031153;28;87433;-83
2022/08/01 00:17:44;;;;;;;0.80;0.80;;;25.60;56.40;;;;;;5031689;27;88636;-83
2022/08/01 00:20:14;;;;;;;1.02;0.93;;;25.60;56.40;;;;;;5029922;28;88201;-83
2022/08/01 00:22:40;;;;;;;1.27;1.08;;;25.60;56.30;;;;;;5027764;28;87989;-83
2022/08/01 00:25:06;;;;;;;2.60;1.08;;;25.60;56.30;;;;;;5029202;28;87543;-82
2022/08/01 00:27:34;;;;;;;1.02;0.93;;;25.60;56.20;;;;;;5028667;28;89973;-82
2022/08/01 00:30:02;;;;;;;1.23;1.13;;;25.50;56.10;;;;;;5031217;28;88285;-82
2022/08/01 00:32:30;;;;;;;1.17;0.90;;;25.50;56.20;;;;;;5030981;28;87361;-83
2022/08/01 00:34:56;;;;;;;0.95;0.93;;;25.50;56.40;;;;;;5031673;28;87280;-83
2022/08/01 00:37:22;;;;;;;1.27;1.05;;;25.50;56.30;;;;;;5031720;28;87450;-83
2022/08/01 00:39:47;;;;;;;1.02;1.00;;;25.50;56.50;;;;;;5032050;28;88131;-82
2022/08/01 00:42:13;;;;;;;0.90;0.90;;;25.50;56.20;;;;;;5029021;28;87335;-83
2022/08/01 00:44:39;;;;;;;1.38;1.00;;;25.50;56.20;;;;;;5032257;28;87422;-83
2022/08/01 00:47:05;;;;;;;0.77;0.77;;;25.50;56.20;;;;;;5029917;28;90023;-83
2022/08/01 00:49:31;;;;;;;1.67;1.20;;;25.50;56.50;;;;;;5027270;28;89280;-82
2022/08/01 00:52:00;;;;;;;0.80;0.80;;;25.50;56.30;;;;;;5025701;28;87328;-82
2022/08/01 00:54:26;;;;;;;1.00;0.90;;;25.50;56.40;;;;;;5027760;28;87143;-82
2022/08/01 00:56:53;;;;;;;0.90;0.90;;;25.50;56.40;;;;;;5028322;28;87882;-82
2022/08/01 00:59:21;;;;;;;0.82;0.80;;;25.50;56.40;;;;;;5028551;28;87297;-82
2022/08/01 01:01:47;;;;;;;1.58;1.10;;;25.50;56.40;;;;;;5063836;27;86955;-82
2022/08/01 01:04:13;;;;;;;1.55;0.90;;;25.50;56.30;;;;;;5030736;28;87380;-83
2022/08/01 01:06:51;;;;;;;0.90;0.90;;;25.50;56.30;;;;;;5030340;28;88747;-82
2022/08/01 01:09:52;;;;;;;1.10;1.00;;;25.50;56.30;;;;;;5029342;28;88236;-82
2022/08/01 01:12:26;;;;;;;1.17;1.00;;;25.40;56.10;;;;;;5030104;28;87859;-83
2022/08/01 01:15:36;;;;;;;0.95;0.88;;;25.40;56.10;;;;;;5030546;28;86987;-82
2022/08/01 01:18:11;;;;;;;1.35;1.25;;;25.40;56.20;;;;;;5016821;28;87930;-82
2022/08/01 01:20:40;;;;;;;1.25;0.95;;;25.40;56.20;;;;;;5017093;28;88348;-82
2022/08/01 01:23:33;;;;;;;1.33;0.95;;;25.40;56.20;;;;;;5016779;28;86993;-83
2022/08/01 01:26:30;;;;;;;1.48;1.17;;;25.40;56.10;;;;;;5017094;28;87379;-83
2022/08/01 01:29:03;;;;;;;1.05;0.95;;;25.40;56.30;;;;;;5016463;28;87404;-83
2022/08/01 01:31:35;;;;;;;0.95;0.90;;;25.40;56.30;;;;;;5017527;28;87090;-83
2022/08/01 01:34:05;;;;;;;1.00;0.95;;;25.40;56.20;;;;;;5016536;28;87035;-83
2022/08/01 01:36:33;;;;;;;0.80;0.80;;;25.40;56.30;;;;;;5017444;28;87514;-83
2022/08/01 01:39:00;;;;;;;1.00;0.90;;;25.40;56.10;;;;;;4999624;28;92955;-83
2022/08/01 01:41:28;;;;;;;1.02;0.93;;;25.40;56.10;;;;;;5017862;28;88881;-82
2022/08/01 01:43:55;;;;;;;0.98;0.98;;;25.40;56.20;;;;;;5017468;28;87061;-83
2022/08/01 01:46:24;;;;;;;1.23;1.00;;;25.40;56.10;;;;;;5000203;28;90952;-82
2022/08/01 01:48:50;;;;;;;;;;;25.40;56.30;;;;;;5017101;28;88498;-82
2022/08/01 01:51:17;;;;;;;0.98;0.98;;;25.40;56.30;;;;;;5018959;28;87503;-83
2022/08/01 01:53:43;;;;;;;1.23;1.10;;;25.40;56.30;;;;;;5016662;28;87122;-82
2022/08/01 01:56:11;;;;;;;1.30;1.20;;;25.40;56.30;;;;;;5028595;28;87010;-83
2022/08/01 01:58:39;;;;;;;0.85;0.80;;;25.40;56.20;;;;;;5061784;27;89072;-83
2022/08/01 02:01:06;;;;;;;0.90;0.90;;;25.40;56.20;;;;;;5029604;28;87392;-82
2022/08/01 02:03:36;;;;;;;1.20;1.10;;;25.40;55.90;;;;;;5029703;28;88153;-83
2022/08/01 02:06:03;;;;;;;1.13;0.90;;;25.40;56.20;;;;;;5028311;28;86877;-83
2022/08/01 02:08:30;;;;;;;1.02;0.93;;;25.40;56.10;;;;;;5028588;28;88110;-83
2022/08/01 02:13:43;;;;;;;1.20;1.10;;;25.40;56.20;;;;;;5030736;28;87036;-83
2022/08/01 02:16:11;;;;;;;1.70;1.58;;;25.30;56.10;;;;;;5029421;28;87484;-83
2022/08/01 02:18:36;;;;;;;0.85;0.85;;;25.30;56.10;;;;;;5029530;28;89843;-82
2022/08/01 02:21:05;;;;;;;1.00;1.00;;;25.40;56.30;;;;;;5029346;28;88597;-83
2022/08/01 02:23:36;;;;;;;0.83;0.83;;;25.30;56.20;;;;;;5030904;28;86896;-83
2022/08/01 02:26:09;;;;;;;1.02;0.93;;;25.30;56.20;;;;;;5030782;28;87266;-83
2022/08/01 02:28:43;;;;;;;1.00;0.90;;;25.30;56.20;;;;;;5026509;28;88169;-83
2022/08/01 02:31:16;;;;;;;0.90;0.90;;;25.30;56.20;;;;;;5027830;28;89181;-82
2022/08/01 02:33:53;;;;;;;0.80;0.80;;;25.40;56.10;;;;;;5028019;28;87481;-83
2022/08/01 02:36:20;;;;;;;1.10;1.00;;;25.30;56.00;;;;;;5029471;28;86872;-83
2022/08/01 02:38:46;;;;;;;0.90;0.90;;;25.30;55.90;;;;;;5027695;28;88150;-83
2022/08/01 02:41:19;;;;;;;0.73;0.73;;;25.30;55.90;;;;;;5031674;28;88943;-82
2022/08/01 02:43:49;;;;;;;1.42;1.20;;;25.30;55.80;;;;;;5032404;28;87033;-83
2022/08/01 02:46:24;;;;;;;0.80;0.80;;;25.30;55.70;;;;;;5031839;28;87984;-82
2022/08/01 02:48:53;;;;;;;0.95;0.95;;;25.30;55.90;;;;;;5032020;28;90487;-83
2022/08/01 02:51:21;;;;;;;1.10;1.00;;;25.30;55.70;;;;;;5031447;27;87473;-83
2022/08/01 02:53:49;;;;;;;0.93;0.93;;;25.40;55.80;;;;;;5033547;28;88416;-83
2022/08/01 02:56:17;;;;;;;0.70;0.70;;;25.30;55.80;;;;;;5030767;28;87406;-83
2022/08/01 02:58:44;;;;;;;0.90;0.90;;;25.30;55.80;;;;;;5033504;28;87628;-82
2022/08/01 03:01:11;;;;;;;0.90;0.90;;;25.30;55.80;;;;;;5033145;28;86859;-82
2022/08/01 03:03:37;;;;;;;1.48;1.15;;;25.30;55.80;;;;;;5033319;28;87218;-83
2022/08/01 03:06:04;;;;;;;0.85;0.80;;;25.30;56.00;;;;;;5032203;28;87800;-83
2022/08/01 03:08:31;;;;;;;0.80;0.80;;;25.30;55.90;;;;;;5030219;28;88361;-83
2022/08/01 03:10:59;;;;;;;1.05;0.90;;;25.30;55.90;;;;;;5031753;28;87185;-83
2022/08/01 03:13:27;;;;;;;1.00;0.95;;;25.30;55.80;;;;;;5032527;28;86986;-82
2022/08/01 03:15:54;;;;;;;1.30;1.20;;;25.30;56.00;;;;;;5033141;28;87437;-83
2022/08/01 03:18:22;;;;;;;1.40;1.25;;;25.30;55.90;;;;;;5030207;28;89065;-83
2022/08/01 03:20:49;;;;;;;1.17;1.08;;;25.30;55.90;;;;;;5032302;28;88854;-83
2022/08/01 03:23:16;;;;;;;1.20;1.10;;;25.30;56.10;;;;;;5031539;28;87268;-82
2022/08/01 03:25:45;;;;;;;1.42;1.05;;;25.30;56.10;;;;;;5031065;27;88596;-83
2022/08/01 03:28:15;;;;;;;0.98;0.88;;;25.30;56.10;;;;;;5063108;27;87759;-83
2022/08/01 03:30:42;;;;;;;0.95;0.80;;;25.30;55.90;;;;;;5030474;28;87372;-82
2022/08/01 03:33:09;;;;;;;0.73;0.73;;;25.30;56.10;;;;;;5032221;28;87539;-83
2022/08/01 03:35:39;;;;;;;1.15;1.05;;;25.30;56.10;;;;;;5028858;28;89792;-83
2022/08/01 03:38:10;;;;;;;0.88;0.88;;;25.30;56.00;;;;;;5029529;28;88720;-83
2022/08/01 03:40:39;;;;;;;0.80;0.80;;;25.30;55.90;;;;;;5063521;27;88370;-83
2022/08/01 03:43:18;;;;;;;0.82;0.80;;;25.30;55.90;;;;;;5030762;28;88422;-83
2022/08/01 03:45:47;;;;;;;0.80;0.80;;;25.20;55.90;;;;;;5030355;28;87491;-82
2022/08/01 03:48:17;;;;;;;0.90;0.90;;;25.20;56.10;;;;;;5029872;28;88560;-83
2022/08/01 03:50:50;;;;;;;0.85;0.80;;;25.20;56.00;;;;;;5063078;27;89648;-82
2022/08/01 03:53:21;;;;;;;0.80;0.80;;;25.20;56.10;;;;;;5032136;28;87245;-83
2022/08/01 03:55:47;;;;;;;0.70;0.70;;;25.20;56.10;;;;;;5030763;28;88776;-83
2022/08/01 03:58:13;;;;;;;1.08;0.98;;;25.20;56.00;;;;;;5031154;28;89045;-82
2022/08/01 04:00:40;;;;;;;1.10;1.00;;;25.20;56.10;;;;;;5030917;28;89270;-82
2022/08/01 04:03:10;;;;;;;0.90;0.90;;;25.20;56.10;;;;;;5032740;28;87788;-83
2022/08/01 04:05:35;;;;;;;1.10;1.00;;;25.20;56.00;;;;;;5030517;28;86951;-82
2022/08/01 04:08:02;;;;;;;0.80;0.80;;;25.20;56.00;;;;;;5031104;28;88693;-81
2022/08/01 04:10:28;;;;;;;0.70;0.70;;;25.20;56.10;;;;;;5031904;28;88881;-83
2022/08/01 04:12:54;;;;;;;0.75;0.75;;;25.20;56.20;;;;;;5030370;28;87509;-83
2022/08/01 04:15:20;;;;;;;0.90;0.90;;;25.20;56.10;;;;;;5030346;28;87564;-83
2022/08/01 04:17:46;;;;;;;0.90;0.90;;;25.20;56.10;;;;;;5030450;28;88537;-82
2022/08/01 04:20:12;;;;;;;0.93;0.90;;;25.20;56.20;;;;;;5029840;28;87120;-82
2022/08/01 04:22:39;;;;;;;1.00;0.90;;;25.20;56.10;;;;;;5030863;28;87333;-83
2022/08/01 04:25:15;;;;;;;0.90;0.90;;;25.20;56.20;;;;;;5031323;28;87480;-83
2022/08/01 04:27:46;;;;;;;0.80;0.80;;;25.20;56.10;;;;;;5031595;28;87764;-83
2022/08/01 04:30:14;;;;;;;1.23;1.13;;;25.20;56.00;;;;;;5031278;28;87943;-83
2022/08/01 04:32:44;;;;;;;0.77;0.68;;;25.20;56.10;;;;;;5030715;28;88419;-82
2022/08/01 04:35:16;;;;;;;0.88;0.88;;;25.20;56.20;;;;;;5030717;28;87351;-82
2022/08/01 04:37:44;;;;;;;0.98;0.90;;;25.20;56.20;;;;;;5030025;28;89897;-83
2022/08/01 04:40:10;;;;;;;0.95;0.85;;;25.20;56.10;;;;;;5028443;27;89078;-82
2022/08/01 04:42:36;;;;;;;0.70;0.70;;;25.20;56.10;;;;;;5027756;28;87518;-83
2022/08/01 04:45:02;;;;;;;0.95;0.90;;;25.20;56.20;;;;;;5026140;28;87548;-83
2022/08/01 04:47:29;;;;;;;0.98;0.98;;;25.20;56.10;;;;;;5027161;28;87276;-83
2022/08/01 04:49:56;;;;;;;0.77;0.77;;;25.20;56.10;;;;;;5031204;28;88170;-83
2022/08/01 04:52:22;;;;;;;0.80;0.80;;;25.20;56.20;;;;;;5031154;27;86975;-83
2022/08/01 04:54:47;;;;;;;0.70;0.70;;;25.20;56.20;;;;;;5028097;28;87437;-83
2022/08/01 04:57:14;;;;;;;1.13;1.02;;;25.20;56.20;;;;;;5026916;28;89542;-83
2022/08/01 04:59:43;;;;;;;1.33;1.02;;;25.20;56.20;;;;;;5027316;28;90836;-84
2022/08/01 05:02:09;;;;;;;1.02;0.93;;;25.20;56.30;;;;;;5031926;28;87525;-82
2022/08/01 05:04:35;;;;;;;0.85;0.73;;;25.10;56.20;;;;;;5028422;28;87267;-82
2022/08/01 05:07:01;;;;;;;0.80;0.80;;;25.20;56.20;;;;;;5032911;28;89353;-82
2022/08/01 05:09:26;;;;;;;0.80;0.80;;;25.20;56.10;;;;;;5029448;28;87350;-82
2022/08/01 05:11:52;;;;;;;0.68;0.68;;;25.10;56.10;;;;;;5030671;28;87220;-83
2022/08/01 05:14:18;;;;;;;0.88;0.88;;;25.10;56.20;;;;;;5029703;28;87332;-82
2022/08/01 05:16:45;;;;;;;0.70;0.65;;;25.10;56.20;;;;;;5029419;28;91662;-82
2022/08/01 05:19:11;;;;;;;0.80;0.80;;;25.20;56.40;;;;;;5031186;28;88571;-82
2022/08/01 05:21:37;;;;;;;0.95;0.95;;;25.10;56.20;;;;;;5029791;28;88273;-83
2022/08/01 05:24:04;;;;;;;0.90;0.90;;;25.20;56.30;;;;;;5032596;28;87869;-83
2022/08/01 05:26:29;;;;;;;0.80;0.80;;;25.20;56.30;;;;;;5031081;28;91166;-83
2022/08/01 05:28:55;;;;;;;1.00;0.90;;;25.10;56.20;;;;;;5029826;28;87369;-83
2022/08/01 05:31:20;;;;;;;0.80;0.80;;;25.20;56.40;;;;;;5031130;28;87001;-84
2022/08/01 05:33:46;;;;;;;0.70;0.70;;;25.10;56.20;;;;;;5031829;28;87472;-83
2022/08/01 05:36:12;;;;;;;1.17;0.95;;;25.10;56.20;;;;;;5029456;28;88080;-83
2022/08/01 05:38:37;;;;;;;1.25;1.15;;;25.10;56.20;;;;;;5031797;28;86787;-83
2022/08/01 05:41:03;;;;;;;1.20;1.05;;;25.10;56.20;;;;;;5033208;28;86973;-83
2022/08/01 05:43:28;;;;;;;0.98;0.80;;;25.10;56.20;;;;;;5032106;28;87524;-83
2022/08/01 05:45:58;;;;;;;0.80;0.80;;;25.10;56.40;;;;;;5030886;28;90129;-80
2022/08/01 05:48:23;;;;;;;2.72;1.15;;;25.10;56.20;;;;;;5028010;28;89882;-80
2022/08/01 05:50:49;;;;;;;3.92;2.25;;;25.20;56.60;;;;;;5019742;28;87581;-80
2022/08/01 05:53:15;;;;;;;4.82;3.05;;;25.10;57.90;;;;;;5023485;28;87293;-79
2022/08/01 05:55:40;;;;;;;7.22;3.08;;;25.10;58.90;;;;;;5029094;28;87147;-80
2022/08/01 05:58:06;;;;;;;5.45;2.95;;;25.10;59.40;;;;;;5024424;28;87363;-80
2022/08/01 06:00:31;;;;;;;9.80;3.92;;;25.10;58.90;;;;;;5022317;28;87553;-80
2022/08/01 06:02:57;;;;;;;16.63;5.53;;;25.10;58.70;;;;;;5028023;28;86752;-80
2022/08/01 06:05:23;;;;;;;12.75;4.95;;;25.10;58.50;;;;;;5022961;28;88077;-80
2022/08/01 06:07:48;;;;;;;11.82;4.97;;;25.20;59.10;;;;;;5026805;28;88138;-80
2022/08/01 06:10:14;;;;;;;17.42;5.13;;;25.20;59.10;;;;;;5024210;28;88286;-80
2022/08/01 06:12:40;;;;;;;13.00;5.20;;;25.30;59.40;;;;;;5026228;28;87326;-81
2022/08/01 06:15:06;;;;;;;16.13;4.80;;;25.20;59.30;;;;;;5026151;27;87943;-81
2022/08/01 06:17:32;;;;;;;15.10;5.28;;;25.20;59.70;;;;;;5031001;28;88299;-81
2022/08/01 06:19:59;;;;;;;12.05;5.25;;;25.20;60.20;;;;;;5032926;28;86940;-80
2022/08/01 06:22:24;;;;;;;20.50;5.95;;;25.10;60.90;;;;;;5045468;27;89583;-80
2022/08/01 06:24:50;;;;;;;17.27;5.25;;;25.10;61.40;;;;;;5031067;28;88143;-81
2022/08/01 06:27:16;;;;;;;12.90;5.82;;;25.00;61.50;;;;;;5029300;28;86514;-80
2022/08/01 06:29:42;;;;;;;14.15;5.28;;;25.00;62.20;;;;;;5030260;28;87529;-81
2022/08/01 06:32:09;;;;;;;16.20;5.53;;;24.90;62.50;;;;;;5030109;28;87846;-80
2022/08/01 06:34:35;;;;;;;10.68;4.85;;;24.90;62.80;;;;;;5030458;28;88299;-80
2022/08/01 06:37:00;;;;;;;9.20;4.63;;;24.90;63.10;;;;;;5028586;28;87988;-80
2022/08/01 06:39:26;;;;;;;9.32;5.10;;;24.90;63.60;;;;;;5029822;28;87157;-81
2022/08/01 06:41:52;;;;;;;7.22;4.97;;;24.90;63.40;;;;;;5031042;27;87247;-80
2022/08/01 06:44:17;;;;;;;14.23;5.15;;;24.90;63.80;;;;;;5024928;28;88442;-81
2022/08/01 06:46:43;;;;;;;8.15;4.68;;;24.90;64.40;;;;;;5027974;28;87957;-81
2022/08/01 06:49:08;;;;;;;7.60;4.55;;;25.00;63.30;;;;;;5026454;28;86945;-80
2022/08/01 06:51:34;;;;;;;10.23;4.38;;;25.00;63.80;;;;;;5026850;28;86273;-80
2022/08/01 06:53:59;;;;;;;9.02;4.53;;;24.90;64.20;;;;;;5026435;27;88357;-80
2022/08/01 06:56:25;;;;;;;9.27;4.90;;;24.90;63.90;;;;;;5029912;28;88299;-81
2022/08/01 06:58:51;;;;;;;8.48;4.72;;;24.90;64.40;;;;;;5030996;28;88208;-81
2022/08/01 07:01:16;;;;;;;11.48;4.90;;;25.00;64.30;;;;;;5024568;27;88796;-81
2022/08/01 07:03:42;;;;;;;10.25;4.32;;;25.00;64.40;;;;;;5029610;27;88316;-80
2022/08/01 07:06:07;;;;;;;7.22;4.50;;;25.00;64.20;;;;;;5027706;27;87881;-81
2022/08/01 07:08:33;;;;;;;13.05;5.30;;;25.00;64.70;;;;;;5028616;28;87611;-81
2022/08/01 07:10:59;;;;;;;9.93;4.28;;;25.00;64.90;;;;;;5029928;28;87256;-80
2022/08/01 07:13:27;;;;;;;8.82;4.50;;;24.90;65.50;;;;;;5032567;28;88621;-81
2022/08/01 07:15:53;;;;;;;7.75;4.43;;;25.00;65.40;;;;;;5031147;28;87907;-80
2022/08/01 07:18:19;;;;;;;10.73;4.35;;;25.00;64.70;;;;;;5027985;28;87242;-81
2022/08/01 07:20:48;;;;;;;8.73;4.25;;;24.90;65.20;;;;;;5027508;28;87128;-80
2022/08/01 07:23:14;;;;;;;11.80;4.57;;;25.00;64.60;;;;;;5025528;28;88602;-81
2022/08/01 07:25:39;;;;;;;7.43;3.80;;;25.00;64.90;;;;;;5024713;28;89214;-81
2022/08/01 07:28:05;;;;;;;11.68;4.40;;;25.10;64.70;;;;;;5024028;28;87552;-81
2022/08/01 07:30:31;;;;;;;13.07;4.75;;;25.00;64.70;;;;;;5018572;28;88656;-81
2022/08/01 07:32:57;;;;;;;10.18;5.07;;;25.10;64.60;;;;;;5033438;27;89305;-81
2022/08/01 07:35:23;;;;;;;12.45;4.63;;;25.00;64.70;;;;;;5016134;28;90162;-82
2022/08/01 07:37:48;;;;;;;8.70;3.65;;;25.10;64.40;;;;;;5022702;28;86960;-82
2022/08/01 07:40:14;;;;;;;7.40;3.88;;;25.10;63.90;;;;;;5020524;28;90221;-82
2022/08/01 07:42:44;;;;;;;9.52;3.80;;;25.10;63.80;;;;;;5021203;28;88981;-82
2022/08/01 07:45:11;;;;;;;9.07;3.60;;;25.10;63.80;;;;;;4985379;27;97627;-83
2022/08/01 07:47:37;;;;;;;7.53;3.80;;;25.10;64.40;;;;;;5021103;28;87847;-82
2022/08/01 07:50:05;;;;;;;9.23;3.25;;;25.10;63.10;;;;;;5025048;28;87558;-81
2022/08/01 07:52:31;;;;;;;9.32;3.80;;;25.10;63.90;;;;;;5021042;28;88226;-82
2022/08/01 07:54:57;;;;;;;11.05;3.30;;;25.20;63.00;;;;;;5021605;28;88541;-82
2022/08/01 07:57:23;;;;;;;6.85;3.05;;;25.20;62.90;;;;;;5023063;28;87305;-82
2022/08/01 07:59:50;;;;;;;13.63;3.40;;;25.20;62.40;;;;;;5024818;28;88791;-82
2022/08/01 08:02:15;;;;;;;7.07;3.47;;;25.20;62.30;;;;;;5025875;28;88182;-82
2022/08/01 08:04:41;;;;;;;8.88;3.85;;;25.20;62.50;;;;;;5022976;28;88601;-82
2022/08/01 08:07:06;;;;;;;5.53;3.10;;;25.20;62.50;;;;;;5018470;28;87282;-82
2022/08/01 08:09:32;;;;;;;5.97;3.13;;;25.30;62.20;;;;;;5022624;28;87490;-82
2022/08/01 08:11:58;;;;;;;10.57;3.22;;;25.30;63.00;;;;;;5023742;28;89714;-82
2022/08/01 08:14:24;;;;;;;8.65;3.40;;;25.30;61.40;;;;;;5021998;28;89191;-82
2022/08/01 08:16:50;;;;;;;6.45;3.28;;;25.40;61.20;;;;;;5019375;28;87378;-81
2022/08/01 08:19:16;;;;;;;7.18;2.75;;;25.40;60.40;;;;;;5022317;28;87364;-82
2022/08/01 08:21:41;;;;;;;5.90;2.60;;;25.40;59.90;;;;;;5022570;28;88433;-82
2022/08/01 08:24:21;;;;;;;3.65;2.80;;;25.40;59.90;;;;;;5023060;28;87949;-82
2022/08/01 08:26:48;;;;;;;10.25;3.03;;;25.40;60.20;;;;;;5024433;28;87597;-82
2022/08/01 08:29:14;;;;;;;9.13;3.15;;;25.50;60.20;;;;;;5021630;28;86928;-82
2022/08/01 08:31:40;;;;;;;9.40;3.20;;;25.40;60.30;;;;;;5022202;28;89918;-82
2022/08/01 08:34:05;;;;;;;7.85;2.75;;;25.50;60.00;;;;;;5020120;28;89246;-81
2022/08/01 08:36:31;;;;;;;8.25;3.10;;;25.60;59.70;;;;;;5025771;28;88305;-82
2022/08/01 08:38:57;;;;;;;10.63;3.40;;;25.60;60.30;;;;;;5025365;27;87634;-83
2022/08/01 08:41:23;;;;;;;11.55;3.80;;;25.60;60.40;;;;;;5024049;28;88326;-82
2022/08/01 08:43:48;;;;;;;9.82;3.38;;;25.50;60.30;;;;;;5022530;28;87856;-82
2022/08/01 08:46:15;;;;;;;11.10;3.20;;;25.60;60.60;;;;;;5026411;28;87091;-83
2022/08/01 08:48:41;;;;;;;11.48;3.22;;;25.60;60.90;;;;;;5027206;28;87316;-83
2022/08/01 08:51:10;;;;;;;9.63;3.25;;;25.70;60.70;;;;;;5027540;28;87451;-83
2022/08/01 08:53:42;;;;;;;16.50;3.75;;;25.70;61.30;;;;;;5025255;28;90253;-84
2022/08/01 08:56:09;;;;;;;9.82;3.30;;;25.70;60.40;;;;;;5026739;28;87653;-82
2022/08/01 08:58:37;;;;;;;9.65;3.03;;;25.80;59.90;;;;;;5023161;28;86880;-83
2022/08/01 09:01:06;;;;;;;9.82;3.40;;;25.80;59.90;;;;;;5025475;28;90291;-83
2022/08/01 09:03:32;;;;;;;8.60;2.92;;;25.80;59.70;;;;;;5027450;28;90513;-83
2022/08/01 09:05:58;;;;;;;5.30;2.67;;;25.80;58.90;;;;;;5026126;28;87386;-83
2022/08/01 09:08:24;;;;;;;6.18;2.55;;;25.80;58.40;;;;;;5024718;28;88389;-83
2022/08/01 09:10:49;;;;;;;7.40;3.10;;;25.80;57.70;;;;;;5026915;28;88632;-83
2022/08/01 09:13:15;;;;;;;10.00;2.67;;;25.80;58.00;;;;;;5024449;28;87384;-83
2022/08/01 09:15:46;;;;;;;4.43;2.42;;;25.80;58.20;;;;;;5023607;28;87233;-83
2022/08/01 09:18:44;;;;;;;4.32;2.25;;;25.80;58.20;;;;;;5027702;28;86501;-84
2022/08/01 09:21:16;;;;;;;4.88;2.50;;;25.90;57.40;;;;;;5026800;28;88580;-84
2022/08/01 09:23:50;;;;;;;5.20;2.58;;;25.90;56.90;;;;;;5028005;28;88332;-83
2022/08/01 09:26:18;;;;;;;6.05;2.75;;;25.90;56.70;;;;;;5025214;28;88452;-84
2022/08/01 09:28:45;;;;;;;7.18;2.47;;;25.80;56.60;;;;;;5028331;28;87391;-84
2022/08/01 09:31:14;;;;;;;9.80;2.75;;;25.80;57.20;;;;;;5026050;28;88419;-83
2022/08/01 09:34:03;;;;;;;9.33;2.47;;;25.90;56.80;;;;;;5029351;28;88017;-84
2022/08/01 09:36:56;;;;;;;7.03;2.28;;;25.90;55.80;;;;;;5029289;28;86910;-84
2022/08/01 09:39:39;;;;;;;12.50;2.58;;;26.00;56.40;;;;;;5032633;28;87709;-84
2022/08/01 09:42:25;;;;;;;6.50;2.40;;;25.90;56.90;;;;;;5030199;28;88550;-84
2022/08/01 09:44:50;;;;;;;9.43;2.25;;;25.90;57.00;;;;;;5031222;28;89817;-84
2022/08/01 09:47:18;;;;;;;11.63;2.72;;;25.80;56.80;;;;;;5028607;28;87048;-84
2022/08/01 09:49:44;;;;;;;13.98;2.72;;;25.90;56.90;;;;;;5029460;27;87444;-84
2022/08/01 09:52:14;;;;;;;9.05;2.55;;;25.90;57.90;;;;;;5029152;28;90364;-84
2022/08/01 09:54:42;;;;;;;6.90;2.63;;;25.90;57.20;;;;;;5030485;28;91840;-84
2022/08/01 09:57:17;;;;;;;5.38;2.35;;;25.90;57.10;;;;;;5032466;28;87346;-85
2022/08/01 09:59:45;;;;;;;8.10;2.20;;;26.00;57.20;;;;;;5033216;28;87320;-83
2022/08/01 10:02:15;;;;;;;8.13;2.50;;;26.00;57.20;;;;;;5031794;28;87553;-84
2022/08/01 10:04:51;;;;;;;5.28;2.30;;;26.00;57.20;;;;;;5032591;28;88811;-84
2022/08/01 10:07:17;;;;;;;12.77;2.97;;;26.00;57.10;;;;;;5030364;28;87505;-84
2022/08/01 10:09:44;;;;;;;8.05;2.45;;;26.00;57.00;;;;;;5032948;27;88799;-85
2022/08/01 10:12:11;;;;;;;6.95;2.70;;;26.00;57.40;;;;;;5031018;28;91518;-84
2022/08/01 10:14:38;;;;;;;15.77;3.08;;;26.10;57.20;;;;;;5028788;28;89005;-85
2022/08/01 10:17:11;;;;;;;12.73;2.70;;;26.10;56.80;;;;;;5030484;28;88346;-84
2022/08/01 10:19:41;;;;;;;10.18;2.60;;;26.10;56.60;;;;;;5032332;28;87430;-84
2022/08/01 10:22:08;;;;;;;11.50;2.40;;;26.10;56.90;;;;;;5031828;28;88592;-84
2022/08/01 10:24:38;;;;;;;6.68;2.35;;;26.10;57.00;;;;;;5030640;28;88450;-84
2022/08/01 10:29:45;;;;;;;9.77;2.80;;;26.10;57.20;;;;;;5030585;28;87309;-84
2022/08/01 10:32:11;;;;;;;13.63;2.63;;;26.10;57.40;;;;;;5031693;28;88247;-84
2022/08/01 10:34:37;;;;;;;14.00;2.28;;;26.00;57.10;;;;;;5031454;28;88490;-83
2022/08/01 10:37:07;;;;;;;20.27;2.75;;;26.10;56.90;;;;;;5031881;28;87306;-84
2022/08/01 10:39:33;;;;;;;7.38;2.20;;;26.10;57.00;;;;;;5031600;28;86940;-84
2022/08/01 10:42:00;;;;;;;9.52;3.08;;;26.10;57.00;;;;;;5031303;28;88887;-84
2022/08/01 10:44:28;;;;;;;9.93;2.72;;;26.20;56.80;;;;;;5031811;28;89145;-84
2022/08/01 10:47:01;;;;;;;4.82;2.40;;;26.10;56.70;;;;;;5031466;28;87292;-84
2022/08/01 10:49:30;;;;;;;16.02;3.35;;;26.10;56.70;;;;;;5038365;27;87479;-84
2022/08/01 10:51:56;;;;;;;7.82;2.67;;;26.20;56.90;;;;;;5032066;28;89228;-84
2022/08/01 10:54:25;;;;;;;10.60;2.30;;;26.10;56.80;;;;;;5032377;28;87438;-84
2022/08/01 10:56:52;;;;;;;11.25;2.70;;;26.10;57.10;;;;;;5031476;28;86956;-84
2022/08/01 10:59:26;;;;;;;10.60;2.60;;;26.10;56.90;;;;;;5029814;28;86864;-84
2022/08/01 11:02:01;;;;;;;15.02;2.90;;;26.20;57.10;;;;;;5031042;28;89065;-84
2022/08/01 11:04:48;;;;;;;9.65;2.50;;;26.20;56.80;;;;;;5031444;28;87726;-84
2022/08/01 11:07:18;;;;;;;10.07;2.75;;;26.20;56.80;;;;;;5031765;28;88320;-84
2022/08/01 11:10:01;;;;;;;10.70;2.70;;;26.10;57.00;;;;;;5032003;28;88574;-84
2022/08/01 11:12:39;;;;;;;4.72;2.03;;;26.20;57.30;;;;;;5038191;28;91345;-84
2022/08/01 11:15:24;;;;;;;11.43;3.15;;;26.20;57.00;;;;;;5029732;28;87384;-84
2022/08/01 11:17:51;;;;;;;5.13;2.25;;;26.20;57.10;;;;;;5031501;28;86975;-85
2022/08/01 11:20:31;;;;;;;8.15;2.35;;;26.20;57.00;;;;;;5032411;28;87158;-84
2022/08/01 11:23:04;;;;;;;9.10;2.35;;;26.20;56.90;;;;;;5031290;28;88919;-84
2022/08/01 11:25:36;;;;;;;6.65;2.38;;;26.20;57.20;;;;;;5028219;28;88793;-85
2022/08/01 11:28:14;;;;;;;8.20;2.67;;;26.10;57.00;;;;;;5031561;28;87221;-84
2022/08/01 11:30:45;;;;;;;6.05;1.77;;;26.10;57.20;;;;;;5025567;28;87682;-83
2022/08/01 11:33:12;;;;;;;7.07;2.00;;;26.20;55.90;;;;;;5026144;28;90735;-83
2022/08/01 11:35:58;;;;;;;12.00;2.22;;;26.20;56.30;;;;;;5019362;28;88641;-83
2022/08/01 11:38:29;;;;;;;9.23;2.53;;;26.20;56.50;;;;;;5019822;27;86910;-83
2022/08/01 11:41:15;;;;;;;18.05;2.72;;;26.30;57.40;;;;;;5023333;28;87424;-83
2022/08/01 11:44:00;;;;;;;21.80;3.00;;;26.30;56.30;;;;;;5022025;28;89872;-83
2022/08/01 11:46:59;;;;;;;9.02;2.05;;;26.30;56.40;;;;;;5024720;28;89514;-82
2022/08/01 11:49:32;;;;;;;9.55;2.47;;;26.30;56.20;;;;;;5024287;28;87242;-83
2022/08/01 11:52:16;;;;;;;10.55;2.65;;;26.20;56.60;;;;;;5024711;28;86528;-82
2022/08/01 11:54:47;;;;;;;10.60;2.40;;;26.20;56.80;;;;;;5022071;28;88040;-83
2022/08/01 11:57:19;;;;;;;10.23;2.20;;;26.10;56.50;;;;;;5025642;28;88130;-83
2022/08/01 11:59:49;;;;;;;17.05;2.90;;;26.20;56.30;;;;;;5022173;28;87891;-83
2022/08/01 12:02:20;;;;;;;7.65;2.40;;;26.30;56.50;;;;;;5028020;28;87907;-83
2022/08/01 12:05:03;;;;;;;10.65;2.38;;;26.30;56.50;;;;;;5024359;28;87310;-83
2022/08/01 12:07:31;;;;;;;8.07;1.92;;;26.30;56.40;;;;;;5025989;28;89852;-83
2022/08/01 12:10:15;;;;;;;11.40;2.42;;;26.30;56.40;;;;;;5021508;28;86963;-83
2022/08/01 12:12:49;;;;;;;7.72;2.40;;;26.20;56.30;;;;;;5020042;27;89569;-83
2022/08/01 12:15:15;;;;;;;12.85;2.50;;;26.20;56.30;;;;;;5021461;28;88207;-83
2022/08/01 12:17:44;;;;;;;15.20;2.47;;;26.30;56.40;;;;;;5023647;28;87438;-83
2022/08/01 12:20:14;;;;;;;7.43;2.28;;;26.30;56.60;;;;;;5026891;28;87414;-82
2022/08/01 12:22:40;;;;;;;11.00;2.22;;;26.30;56.20;;;;;;5023358;28;88422;-83
2022/08/01 12:25:11;;;;;;;7.10;2.30;;;26.30;56.60;;;;;;5022680;28;88326;-83
2022/08/01 12:27:39;;;;;;;8.10;2.53;;;26.30;56.30;;;;;;5022882;28;88777;-83
2022/08/01 12:30:08;;;;;;;6.65;2.05;;;26.30;56.60;;;;;;5023857;28;87245;-83
2022/08/01 12:32:36;;;;;;;8.35;2.25;;;26.20;56.20;;;;;;5024703;28;88769;-84
2022/08/01 12:35:10;;;;;;;5.70;2.50;;;26.20;56.10;;;;;;5025100;28;87985;-83
2022/08/01 12:37:43;;;;;;;14.25;2.67;;;26.20;56.40;;;;;;5024642;28;88063;-84
2022/08/01 12:40:27;;;;;;;8.30;2.50;;;26.30;56.40;;;;;;5023986;28;86921;-83
2022/08/01 12:43:05;;;;;;;7.97;1.92;;;26.30;56.50;;;;;;5023162;28;87825;-83
2022/08/01 12:45:33;;;;;;;5.32;2.15;;;26.30;56.40;;;;;;5025755;28;88820;-83
2022/08/01 12:47:59;;;;;;;7.30;2.30;;;26.30;56.60;;;;;;5021956;28;87680;-82
2022/08/01 12:50:28;;;;;;;10.02;2.75;;;26.40;56.50;;;;;;5026234;28;88501;-83
2022/08/01 12:52:54;;;;;;;10.60;2.40;;;26.40;56.30;;;;;;5020947;28;88022;-83
2022/08/01 12:55:21;;;;;;;7.53;2.30;;;26.30;56.10;;;;;;5023868;28;88209;-83
2022/08/01 12:57:50;;;;;;;17.52;5.53;;;26.30;56.50;;;;;;5022606;28;87825;-83
2022/08/01 13:00:23;;;;;;;20.77;3.22;;;26.40;56.70;;;;;;5021145;28;87400;-83